sensor_id;sensor_type;location;lat;lon;timestamp;pressure;altitude;pressure_sealevel;temperature;humidity
46942;BME280;32676;52.630;4.896;2023-04-05T00:00:53;99656.97;;;3.93;69.42
46942;BME280;32676;52.630;4.896;2023-04-05T00:03:21;99669.91;;;3.94;69.32
46942;BME280;32676;52.630;4.896;2023-04-05T00:05:48;99689.78;;;3.98;69.41
46942;BME280;32676;52.630;4.896;2023-04-05T00:08:14;99688.88;;;3.99;69.58
46942;BME280;32676;52.630;4.896;2023-04-05T00:10:48;99677.66;;;3.97;69.49
46942;BME280;32676;52.630;4.896;2023-04-05T00:13:14;99676.00;;;3.95;69.71
46942;BME280;32676;52.630;4.896;2023-04-05T00:15:41;99669.09;;;3.92;69.72
46942;BME280;32676;52.630;4.896;2023-04-05T00:18:07;99650.13;;;3.89;69.84
46942;BME280;32676;52.630;4.896;2023-04-05T00:20:47;99642.41;;;3.85;69.91
46942;BME280;32676;52.630;4.896;2023-04-05T00:23:13;99629.50;;;3.82;70.04
46942;BME280;32676;52.630;4.896;2023-04-05T00:25:41;99636.41;;;3.83;70.18
46942;BME280;32676;52.630;4.896;2023-04-05T00:28:07;99628.63;;;3.82;70.07
46942;BME280;32676;52.630;4.896;2023-04-05T00:30:33;99616.59;;;3.78;70.31
46942;BME280;32676;52.630;4.896;2023-04-05T00:33:00;99607.16;;;3.75;70.37
46942;BME280;32676;52.630;4.896;2023-04-05T00:35:26;99598.56;;;3.73;70.31
46942;BME280;32676;52.630;4.896;2023-04-05T00:37:54;99588.22;;;3.70;70.58
46942;BME280;32676;52.630;4.896;2023-04-05T00:40:21;99602.88;;;3.73;70.42
46942;BME280;32676;52.630;4.896;2023-04-05T00:42:47;99612.34;;;3.75;70.61
46942;BME280;32676;52.630;4.896;2023-04-05T00:45:13;99614.94;;;3.75;70.72
46942;BME280;32676;52.630;4.896;2023-04-05T00:47:40;99599.44;;;3.72;70.78
46942;BME280;32676;52.630;4.896;2023-04-05T00:50:07;99607.22;;;3.72;70.75
46942;BME280;32676;52.630;4.896;2023-04-05T00:52:35;99602.94;;;3.71;70.65
46942;BME280;32676;52.630;4.896;2023-04-05T00:55:03;99578.78;;;3.68;70.76
46942;BME280;32676;52.630;4.896;2023-04-05T00:57:31;99569.34;;;3.62;70.96
46942;BME280;32676;52.630;4.896;2023-04-05T00:59:58;99553.84;;;3.60;71.12
46942;BME280;32676;52.630;4.896;2023-04-05T01:02:26;99545.28;;;3.57;71.05
46942;BME280;32676;52.630;4.896;2023-04-05T01:04:57;99528.03;;;3.53;71.15
46942;BME280;32676;52.630;4.896;2023-04-05T01:07:28;99517.75;;;3.50;71.34
46942;BME280;32676;52.630;4.896;2023-04-05T01:09:56;99501.38;;;3.46;71.63
46942;BME280;32676;52.630;4.896;2023-04-05T01:12:26;99490.22;;;3.42;71.88
46942;BME280;32676;52.630;4.896;2023-04-05T01:14:54;99492.00;;;3.40;71.93
46942;BME280;32676;52.630;4.896;2023-04-05T01:17:21;99490.22;;;3.42;72.07
46942;BME280;32676;52.630;4.896;2023-04-05T01:19:48;99479.91;;;3.39;72.25
46942;BME280;32676;52.630;4.896;2023-04-05T01:22:27;99491.09;;;3.41;72.30
46942;BME280;32676;52.630;4.896;2023-04-05T01:25:08;99500.59;;;3.42;72.53
46942;BME280;32676;52.630;4.896;2023-04-05T01:27:49;99476.53;;;3.36;72.47
46942;BME280;32676;52.630;4.896;2023-04-05T01:30:20;99480.78;;;3.38;72.67
46942;BME280;32676;52.630;4.896;2023-04-05T01:32:51;99467.03;;;3.35;72.79
46942;BME280;32676;52.630;4.896;2023-04-05T01:35:21;99474.78;;;3.36;73.11
46942;BME280;32676;52.630;4.896;2023-04-05T01:37:48;99479.97;;;3.36;72.92
46942;BME280;32676;52.630;4.896;2023-04-05T01:40:18;99460.13;;;3.34;73.16
46942;BME280;32676;52.630;4.896;2023-04-05T01:42:44;99468.81;;;3.33;73.25
46942;BME280;32676;52.630;4.896;2023-04-05T01:45:11;99458.41;;;3.33;73.33
46942;BME280;32676;52.630;4.896;2023-04-05T01:47:38;99458.47;;;3.31;73.40
46942;BME280;32676;52.630;4.896;2023-04-05T01:50:05;99449.84;;;3.29;73.33
46942;BME280;32676;52.630;4.896;2023-04-05T01:52:32;99438.75;;;3.24;73.45
46942;BME280;32676;52.630;4.896;2023-04-05T01:54:58;99419.81;;;3.20;73.48
46942;BME280;32676;52.630;4.896;2023-04-05T01:57:24;99406.91;;;3.17;73.54
46942;BME280;32676;52.630;4.896;2023-04-05T01:59:51;99393.16;;;3.14;73.59
46942;BME280;32676;52.630;4.896;2023-04-05T02:02:17;99391.44;;;3.13;73.58
46942;BME280;32676;52.630;4.896;2023-04-05T02:04:45;99388.03;;;3.11;73.83
46942;BME280;32676;52.630;4.896;2023-04-05T02:07:11;99375.16;;;3.07;74.01
46942;BME280;32676;52.630;4.896;2023-04-05T02:09:37;99358.81;;;3.04;73.92
46942;BME280;32676;52.630;4.896;2023-04-05T02:12:03;99348.50;;;3.01;74.03
46942;BME280;32676;52.630;4.896;2023-04-05T02:14:30;99339.03;;;2.98;74.03
46942;BME280;32676;52.630;4.896;2023-04-05T02:16:57;99333.94;;;2.95;74.07
46942;BME280;32676;52.630;4.896;2023-04-05T02:19:27;99315.09;;;2.87;74.31
46942;BME280;32676;52.630;4.896;2023-04-05T02:21:57;99305.50;;;2.91;74.56
46942;BME280;32676;52.630;4.896;2023-04-05T02:24:23;99294.34;;;2.87;74.70
46942;BME280;32676;52.630;4.896;2023-04-05T02:26:49;99284.06;;;2.84;74.82
46942;BME280;32676;52.630;4.896;2023-04-05T02:29:16;99273.75;;;2.81;74.86
46942;BME280;32676;52.630;4.896;2023-04-05T02:31:42;99264.38;;;2.77;75.11
46942;BME280;32676;52.630;4.896;2023-04-05T02:34:08;99254.03;;;2.75;75.11
46942;BME280;32676;52.630;4.896;2023-04-05T02:36:35;99255.75;;;2.75;75.52
46942;BME280;32676;52.630;4.896;2023-04-05T02:39:03;99246.28;;;2.74;75.44
46942;BME280;32676;52.630;4.896;2023-04-05T02:41:29;99247.16;;;2.73;75.78
46942;BME280;32676;52.630;4.896;2023-04-05T02:43:56;99251.47;;;2.74;75.75
46942;BME280;32676;52.630;4.896;2023-04-05T02:46:23;99253.16;;;2.75;75.98
46942;BME280;32676;52.630;4.896;2023-04-05T02:48:49;99259.22;;;2.75;75.88
46942;BME280;32676;52.630;4.896;2023-04-05T02:51:15;99258.34;;;2.75;76.16
46942;BME280;32676;52.630;4.896;2023-04-05T02:53:41;99263.53;;;2.75;76.06
46942;BME280;32676;52.630;4.896;2023-04-05T02:56:10;99263.53;;;2.75;76.28
46942;BME280;32676;52.630;4.896;2023-04-05T02:58:37;99261.78;;;2.77;76.40
46942;BME280;32676;52.630;4.896;2023-04-05T03:01:04;99266.97;;;2.77;76.26
46942;BME280;32676;52.630;4.896;2023-04-05T03:03:31;99272.16;;;2.77;76.34
46942;BME280;32676;52.630;4.896;2023-04-05T03:06:00;99270.44;;;2.76;76.33
46942;BME280;32676;52.630;4.896;2023-04-05T03:08:31;99251.53;;;2.71;76.34
46942;BME280;32676;52.630;4.896;2023-04-05T03:10:57;99245.50;;;2.70;76.10
46942;BME280;32676;52.630;4.896;2023-04-05T03:13:25;99229.19;;;2.66;76.01
46942;BME280;32676;52.630;4.896;2023-04-05T03:15:52;99221.44;;;2.65;76.07
46942;BME280;32676;52.630;4.896;2023-04-05T03:18:18;99233.53;;;2.66;76.01
46942;BME280;32676;52.630;4.896;2023-04-05T03:20:46;99227.53;;;2.64;75.93
46942;BME280;32676;52.630;4.896;2023-04-05T03:23:14;99225.78;;;2.64;76.12
46942;BME280;32676;52.630;4.896;2023-04-05T03:25:40;99224.94;;;2.64;76.00
46942;BME280;32676;52.630;4.896;2023-04-05T03:28:06;99215.47;;;2.61;75.98
46942;BME280;32676;52.630;4.896;2023-04-05T03:30:35;99213.78;;;2.60;75.89
46942;BME280;32676;52.630;4.896;2023-04-05T03:33:01;99195.75;;;2.56;76.18
46942;BME280;32676;52.630;4.896;2023-04-05T03:35:28;99189.72;;;2.55;75.89
46942;BME280;32676;52.630;4.896;2023-04-05T03:37:54;99196.59;;;2.56;75.95
46942;BME280;32676;52.630;4.896;2023-04-05T03:40:21;99201.78;;;2.56;76.05
46942;BME280;32676;52.630;4.896;2023-04-05T03:42:48;99212.06;;;2.59;76.22
46942;BME280;32676;52.630;4.896;2023-04-05T03:45:14;99217.25;;;2.59;76.24
46942;BME280;32676;52.630;4.896;2023-04-05T03:47:42;99193.28;;;2.51;76.33
46942;BME280;32676;52.630;4.896;2023-04-05T03:50:08;99198.38;;;2.54;76.05
46942;BME280;32676;52.630;4.896;2023-04-05T03:52:35;99181.19;;;2.50;76.12
46942;BME280;32676;52.630;4.896;2023-04-05T03:55:01;99162.31;;;2.45;76.07
46942;BME280;32676;52.630;4.896;2023-04-05T03:57:28;99142.59;;;2.39;76.16
46942;BME280;32676;52.630;4.896;2023-04-05T03:59:55;99128.00;;;2.37;76.21
46942;BME280;32676;52.630;4.896;2023-04-05T04:02:21;99124.56;;;2.35;76.16
46942;BME280;32676;52.630;4.896;2023-04-05T04:04:48;99115.13;;;2.32;76.27
46942;BME280;32676;52.630;4.896;2023-04-05T04:07:15;99104.81;;;2.30;76.31
46942;BME280;32676;52.630;4.896;2023-04-05T04:09:41;99100.53;;;2.29;76.39
46942;BME280;32676;52.630;4.896;2023-04-05T04:12:08;99102.31;;;2.27;76.43
46942;BME280;32676;52.630;4.896;2023-04-05T04:14:34;99082.53;;;2.23;76.38
46942;BME280;32676;52.630;4.896;2023-04-05T04:17:00;99086.88;;;2.23;76.47
46942;BME280;32676;52.630;4.896;2023-04-05T04:19:27;99062.78;;;2.19;76.28
46942;BME280;32676;52.630;4.896;2023-04-05T04:21:55;99045.66;;;2.14;76.63
46942;BME280;32676;52.630;4.896;2023-04-05T04:24:23;99050.88;;;2.12;76.67
46942;BME280;32676;52.630;4.896;2023-04-05T04:26:51;99023.38;;;2.08;76.66
46942;BME280;32676;52.630;4.896;2023-04-05T04:29:18;99025.16;;;2.06;76.69
46942;BME280;32676;52.630;4.896;2023-04-05T04:31:54;99020.00;;;2.04;76.90
46942;BME280;32676;52.630;4.896;2023-04-05T04:34:21;99007.97;;;2.02;77.02
46942;BME280;32676;52.630;4.896;2023-04-05T04:36:49;98996.81;;;2.00;76.84
46942;BME280;32676;52.630;4.896;2023-04-05T04:39:26;99004.56;;;2.00;77.16
46942;BME280;32676;52.630;4.896;2023-04-05T04:41:55;98996.00;;;1.98;77.09
46942;BME280;32676;52.630;4.896;2023-04-05T04:44:21;98995.16;;;1.97;77.44
46942;BME280;32676;52.630;4.896;2023-04-05T04:46:55;98998.59;;;1.98;77.32
46942;BME280;32676;52.630;4.896;2023-04-05T04:49:21;98999.44;;;1.98;77.64
46942;BME280;32676;52.630;4.896;2023-04-05T04:51:47;99002.91;;;1.99;77.61
46942;BME280;32676;52.630;4.896;2023-04-05T04:54:14;98999.41;;;2.00;77.59
46942;BME280;32676;52.630;4.896;2023-04-05T04:56:46;99002.09;;;1.97;77.38
46942;BME280;32676;52.630;4.896;2023-04-05T04:59:13;99025.22;;;2.03;77.51
46942;BME280;32676;52.630;4.896;2023-04-05T05:01:40;99021.75;;;2.04;77.27
46942;BME280;32676;52.630;4.896;2023-04-05T05:04:06;99034.66;;;2.05;77.31
46942;BME280;32676;52.630;4.896;2023-04-05T05:06:32;99037.19;;;2.07;77.25
46942;BME280;32676;52.630;4.896;2023-04-05T05:08:59;99038.91;;;2.08;77.15
46942;BME280;32676;52.630;4.896;2023-04-05T05:11:25;99054.34;;;2.11;76.86
46942;BME280;32676;52.630;4.896;2023-04-05T05:13:54;99068.16;;;2.13;76.89
46942;BME280;32676;52.630;4.896;2023-04-05T05:16:21;99067.22;;;2.14;76.73
46942;BME280;32676;52.630;4.896;2023-04-05T05:18:49;99071.53;;;2.15;76.83
46942;BME280;32676;52.630;4.896;2023-04-05T05:21:15;99075.81;;;2.16;76.64
46942;BME280;32676;52.630;4.896;2023-04-05T05:23:42;99075.81;;;2.16;76.73
46942;BME280;32676;52.630;4.896;2023-04-05T05:26:08;99078.44;;;2.15;76.70
46942;BME280;32676;52.630;4.896;2023-04-05T05:28:34;99070.66;;;2.15;76.71
46942;BME280;32676;52.630;4.896;2023-04-05T05:31:04;99072.41;;;2.14;76.59
46942;BME280;32676;52.630;4.896;2023-04-05T05:33:30;99066.44;;;2.12;76.69
46942;BME280;32676;52.630;4.896;2023-04-05T05:35:57;99066.44;;;2.12;76.82
46942;BME280;32676;52.630;4.896;2023-04-05T05:38:23;99069.91;;;2.11;76.87
46942;BME280;32676;52.630;4.896;2023-04-05T05:40:53;99069.91;;;2.11;76.93
46942;BME280;32676;52.630;4.896;2023-04-05T05:43:21;99080.19;;;2.14;76.98
46942;BME280;32676;52.630;4.896;2023-04-05T05:45:48;99096.50;;;2.18;77.04
46942;BME280;32676;52.630;4.896;2023-04-05T05:48:15;99111.94;;;2.22;77.11
46942;BME280;32676;52.630;4.896;2023-04-05T05:50:43;99124.81;;;2.25;76.83
46942;BME280;32676;52.630;4.896;2023-04-05T05:53:12;99132.50;;;2.28;76.95
46942;BME280;32676;52.630;4.896;2023-04-05T05:55:38;99135.09;;;2.28;76.76
46942;BME280;32676;52.630;4.896;2023-04-05T05:58:05;99135.94;;;2.29;76.95
46942;BME280;32676;52.630;4.896;2023-04-05T06:00:32;99161.75;;;2.34;76.86
46942;BME280;32676;52.630;4.896;2023-04-05T06:02:58;99169.47;;;2.37;76.97
46942;BME280;32676;52.630;4.896;2023-04-05T06:05:26;99200.41;;;2.43;76.84
46942;BME280;32676;52.630;4.896;2023-04-05T06:07:53;99222.75;;;2.47;77.09
46942;BME280;32676;52.630;4.896;2023-04-05T06:10:19;99227.88;;;2.50;77.15
46942;BME280;32676;52.630;4.896;2023-04-05T06:12:45;99251.94;;;2.55;77.05
46942;BME280;32676;52.630;4.896;2023-04-05T06:15:12;99265.72;;;2.57;77.32
46942;BME280;32676;52.630;4.896;2023-04-05T06:17:38;99291.41;;;2.66;77.18
46942;BME280;32676;52.630;4.896;2023-04-05T06:20:07;99317.19;;;2.73;77.31
46942;BME280;32676;52.630;4.896;2023-04-05T06:22:36;99357.66;;;2.80;77.05
46942;BME280;32676;52.630;4.896;2023-04-05T06:25:04;99369.63;;;2.85;77.40
46942;BME280;32676;52.630;4.896;2023-04-05T06:27:31;99400.63;;;2.92;77.16
46942;BME280;32676;52.630;4.896;2023-04-05T06:29:58;99430.69;;;3.00;77.13
46942;BME280;32676;52.630;4.896;2023-04-05T06:32:24;99477.13;;;3.11;76.91
46942;BME280;32676;52.630;4.896;2023-04-05T06:34:50;99524.44;;;3.22;77.07
46942;BME280;32676;52.630;4.896;2023-04-05T06:37:17;99570.03;;;3.34;76.88
46942;BME280;32676;52.630;4.896;2023-04-05T06:39:45;99607.88;;;3.44;76.65
46942;BME280;32676;52.630;4.896;2023-04-05T06:42:11;99645.81;;;3.52;76.51
46942;BME280;32676;52.630;4.896;2023-04-05T06:44:37;99687.97;;;3.63;76.52
46942;BME280;32676;52.630;4.896;2023-04-05T06:47:04;99734.44;;;3.77;76.29
46942;BME280;32676;52.630;4.896;2023-04-05T06:49:30;99797.38;;;3.90;76.12
46942;BME280;32676;52.630;4.896;2023-04-05T06:51:56;99829.25;;;3.98;76.03
46942;BME280;32676;52.630;4.896;2023-04-05T06:54:23;99883.59;;;4.10;76.03
46942;BME280;32676;52.630;4.896;2023-04-05T06:56:50;99938.75;;;4.25;76.01
46942;BME280;32676;52.630;4.896;2023-04-05T06:59:17;99979.22;;;4.36;76.28
46942;BME280;32676;52.630;4.896;2023-04-05T07:01:43;100037.06;;;4.49;75.93
46942;BME280;32676;52.630;4.896;2023-04-05T07:04:11;100095.78;;;4.63;75.63
46942;BME280;32676;52.630;4.896;2023-04-05T07:06:37;100138.09;;;4.72;75.28
46942;BME280;32676;52.630;4.896;2023-04-05T07:09:03;100183.88;;;4.84;74.70
46942;BME280;32676;52.630;4.896;2023-04-05T07:11:30;100206.28;;;4.91;74.18
46942;BME280;32676;52.630;4.896;2023-04-05T07:13:58;100240.81;;;4.99;73.82
46942;BME280;32676;52.630;4.896;2023-04-05T07:16:24;100274.53;;;5.07;73.38
46942;BME280;32676;52.630;4.896;2023-04-05T07:18:51;100306.53;;;5.14;73.07
46942;BME280;32676;52.630;4.896;2023-04-05T07:21:17;100332.44;;;5.20;72.93
46942;BME280;32676;52.630;4.896;2023-04-05T07:23:43;100351.47;;;5.25;72.77
46942;BME280;32676;52.630;4.896;2023-04-05T07:26:10;100388.66;;;5.35;72.52
46942;BME280;32676;52.630;4.896;2023-04-05T07:28:36;100429.28;;;5.44;72.20
46942;BME280;32676;52.630;4.896;2023-04-05T07:31:04;100474.28;;;5.55;71.71
46942;BME280;32676;52.630;4.896;2023-04-05T07:33:31;100517.53;;;5.65;71.43
46942;BME280;32676;52.630;4.896;2023-04-05T07:35:58;100560.81;;;5.75;71.02
46942;BME280;32676;52.630;4.896;2023-04-05T07:38:24;100606.72;;;5.84;70.46
46942;BME280;32676;52.630;4.896;2023-04-05T07:40:51;100650.03;;;5.96;69.83
46942;BME280;32676;52.630;4.896;2023-04-05T07:43:17;100687.28;;;6.04;69.34
46942;BME280;32676;52.630;4.896;2023-04-05T07:45:44;100715.84;;;6.12;68.54
46942;BME280;32676;52.630;4.896;2023-04-05T07:48:12;100732.28;;;6.19;67.66
46942;BME280;32676;52.630;4.896;2023-04-05T07:50:38;100777.38;;;6.27;66.83
46942;BME280;32676;52.630;4.896;2023-04-05T07:53:06;100790.34;;;6.31;66.15
46942;BME280;32676;52.630;4.896;2023-04-05T07:55:32;100818.94;;;6.39;65.85
46942;BME280;32676;52.630;4.896;2023-04-05T07:58:00;100876.19;;;6.51;65.67
46942;BME280;32676;52.630;4.896;2023-04-05T08:00:26;100921.25;;;6.63;65.34
46942;BME280;32676;52.630;4.896;2023-04-05T08:02:52;100945.56;;;6.68;64.65
46942;BME280;32676;52.630;4.896;2023-04-05T08:05:20;100988.06;;;6.79;64.01
46942;BME280;32676;52.630;4.896;2023-04-05T08:07:47;101026.25;;;6.88;63.78
46942;BME280;32676;52.630;4.896;2023-04-05T08:10:13;101049.66;;;6.94;63.09
46942;BME280;32676;52.630;4.896;2023-04-05T08:12:39;101087.88;;;7.03;62.85
46942;BME280;32676;52.630;4.896;2023-04-05T08:15:06;101127.81;;;7.11;62.70
46942;BME280;32676;52.630;4.896;2023-04-05T08:17:32;101134.75;;;7.15;62.22
46942;BME280;32676;52.630;4.896;2023-04-05T08:19:59;101170.31;;;7.24;61.72
46942;BME280;32676;52.630;4.896;2023-04-05T08:22:27;101204.22;;;7.32;61.41
46942;BME280;32676;52.630;4.896;2023-04-05T08:24:54;101230.28;;;7.38;60.98
46942;BME280;32676;52.630;4.896;2023-04-05T08:27:20;101237.25;;;7.39;60.36
46942;BME280;32676;52.630;4.896;2023-04-05T08:29:46;101258.06;;;7.45;60.17
46942;BME280;32676;52.630;4.896;2023-04-05T08:32:12;101269.38;;;7.45;59.99
46942;BME280;32676;52.630;4.896;2023-04-05T08:34:39;101297.19;;;7.54;59.79
46942;BME280;32676;52.630;4.896;2023-04-05T08:37:05;101321.56;;;7.58;59.61
46942;BME280;32676;52.630;4.896;2023-04-05T08:39:34;101346.75;;;7.63;59.12
46942;BME280;32676;52.630;4.896;2023-04-05T08:42:02;101362.41;;;7.69;58.94
46942;BME280;32676;52.630;4.896;2023-04-05T08:44:29;101386.72;;;7.75;58.16
46942;BME280;32676;52.630;4.896;2023-04-05T08:46:57;101395.47;;;7.77;57.74
46942;BME280;32676;52.630;4.896;2023-04-05T08:49:24;101425.00;;;7.85;57.46
46942;BME280;32676;52.630;4.896;2023-04-05T08:51:50;101463.28;;;7.92;57.43
46942;BME280;32676;52.630;4.896;2023-04-05T08:54:16;101492.84;;;8.00;56.89
46942;BME280;32676;52.630;4.896;2023-04-05T08:56:45;101523.34;;;8.06;56.63
46942;BME280;32676;52.630;4.896;2023-04-05T08:59:12;101559.00;;;8.15;56.01
46942;BME280;32676;52.630;4.896;2023-04-05T09:01:41;101589.47;;;8.23;55.47
46942;BME280;32676;52.630;4.896;2023-04-05T09:04:08;101617.34;;;8.29;55.13
46942;BME280;32676;52.630;4.896;2023-04-05T09:06:37;101637.38;;;8.33;55.17
46942;BME280;32676;52.630;4.896;2023-04-05T09:09:04;101671.34;;;8.41;55.18
46942;BME280;32676;52.630;4.896;2023-04-05T09:11:31;101692.25;;;8.47;55.37
46942;BME280;32676;52.630;4.896;2023-04-05T09:14:01;101736.69;;;8.58;55.68
46942;BME280;32676;52.630;4.896;2023-04-05T09:16:28;101778.53;;;8.67;56.01
46942;BME280;32676;52.630;4.896;2023-04-05T09:18:55;101771.56;;;8.66;56.28
46942;BME280;32676;52.630;4.896;2023-04-05T09:21:21;101769.81;;;8.65;56.52
46942;BME280;32676;52.630;4.896;2023-04-05T09:23:51;101799.44;;;8.73;56.54
46942;BME280;32676;52.630;4.896;2023-04-05T09:26:18;101799.44;;;8.73;56.46
46942;BME280;32676;52.630;4.896;2023-04-05T09:28:45;101801.16;;;8.74;56.48
46942;BME280;32676;52.630;4.896;2023-04-05T09:33:54;101806.41;;;8.74;56.07
46942;BME280;32676;52.630;4.896;2023-04-05T09:36:22;101836.94;;;8.81;56.56
46942;BME280;32676;52.630;4.896;2023-04-05T09:38:48;101878.78;;;8.91;56.55
46942;BME280;32676;52.630;4.896;2023-04-05T09:41:15;101879.63;;;8.93;56.53
46942;BME280;32676;52.630;4.896;2023-04-05T09:43:41;101905.81;;;8.99;55.99
46942;BME280;32676;52.630;4.896;2023-04-05T09:46:15;101899.69;;;8.98;55.98
46942;BME280;32676;52.630;4.896;2023-04-05T09:48:54;101931.97;;;9.05;56.21
46942;BME280;32676;52.630;4.896;2023-04-05T09:51:22;101952.88;;;9.11;55.98
46942;BME280;32676;52.630;4.896;2023-04-05T09:53:57;101960.75;;;9.13;55.47
46942;BME280;32676;52.630;4.896;2023-04-05T09:56:25;101991.28;;;9.18;55.25
46942;BME280;32676;52.630;4.896;2023-04-05T09:58:51;101987.78;;;9.19;54.82
46942;BME280;32676;52.630;4.896;2023-04-05T10:01:18;102041.88;;;9.33;54.95
46942;BME280;32676;52.630;4.896;2023-04-05T10:03:47;102066.34;;;9.38;55.10
46942;BME280;32676;52.630;4.896;2023-04-05T10:06:15;102077.69;;;9.40;54.40
46942;BME280;32676;52.630;4.896;2023-04-05T10:08:42;102089.03;;;9.42;54.10
46942;BME280;32676;52.630;4.896;2023-04-05T10:11:08;102075.06;;;9.40;53.34
46942;BME280;32676;52.630;4.896;2023-04-05T10:13:37;102085.53;;;9.43;52.87
46942;BME280;32676;52.630;4.896;2023-04-05T10:16:05;102071.56;;;9.41;52.37
46942;BME280;32676;52.630;4.896;2023-04-05T10:18:33;102077.69;;;9.40;52.17
46942;BME280;32676;52.630;4.896;2023-04-05T10:21:05;102088.16;;;9.45;51.82
46942;BME280;32676;52.630;4.896;2023-04-05T10:23:37;102110.00;;;9.48;51.48
46942;BME280;32676;52.630;4.896;2023-04-05T10:26:07;102127.44;;;9.52;50.71
46942;BME280;32676;52.630;4.896;2023-04-05T10:28:35;102146.66;;;9.57;50.54
46942;BME280;32676;52.630;4.896;2023-04-05T10:31:09;102183.34;;;9.67;49.77
46942;BME280;32676;52.630;4.896;2023-04-05T10:33:38;102234.00;;;9.78;49.50
46942;BME280;32676;52.630;4.896;2023-04-05T10:36:06;102234.88;;;9.78;49.16
46942;BME280;32676;52.630;4.896;2023-04-05T10:38:37;102245.34;;;9.83;48.81
46942;BME280;32676;52.630;4.896;2023-04-05T10:41:10;102282.91;;;9.91;48.92
46942;BME280;32676;52.630;4.896;2023-04-05T10:43:38;102305.69;;;9.95;48.57
46942;BME280;32676;52.630;4.896;2023-04-05T10:46:05;102324.91;;;10.01;47.84
46942;BME280;32676;52.630;4.896;2023-04-05T10:48:33;102351.13;;;10.07;47.90
46942;BME280;32676;52.630;4.896;2023-04-05T10:51:01;102387.84;;;10.16;47.99
46942;BME280;32676;52.630;4.896;2023-04-05T10:53:29;102395.72;;;10.19;48.09
46942;BME280;32676;52.630;4.896;2023-04-05T10:55:55;102408.81;;;10.22;47.88
46942;BME280;32676;52.630;4.896;2023-04-05T10:58:24;102426.34;;;10.26;48.06
46942;BME280;32676;52.630;4.896;2023-04-05T11:00:51;102429.81;;;10.25;47.78
46942;BME280;32676;52.630;4.896;2023-04-05T11:06:16;102439.44;;;10.29;47.87
46942;BME280;32676;52.630;4.896;2023-04-05T11:08:42;102443.81;;;10.30;47.24
46942;BME280;32676;52.630;4.896;2023-04-05T11:11:11;102443.81;;;10.30;46.71
46942;BME280;32676;52.630;4.896;2023-04-05T11:13:49;102466.59;;;10.34;46.83
46942;BME280;32676;52.630;4.896;2023-04-05T11:16:16;102456.09;;;10.34;46.44
46942;BME280;32676;52.630;4.896;2023-04-05T11:18:46;102475.34;;;10.38;46.37
46942;BME280;32676;52.630;4.896;2023-04-05T11:21:18;102480.59;;;10.40;46.50
46942;BME280;32676;52.630;4.896;2023-04-05T11:24:01;102503.34;;;10.45;46.20
46942;BME280;32676;52.630;4.896;2023-04-05T11:26:30;102502.47;;;10.46;45.97
46942;BME280;32676;52.630;4.896;2023-04-05T11:28:57;102484.09;;;10.42;45.27
46942;BME280;32676;52.630;4.896;2023-04-05T11:31:24;102500.72;;;10.47;45.51
46942;BME280;32676;52.630;4.896;2023-04-05T11:33:55;102513.84;;;10.50;45.23
46942;BME280;32676;52.630;4.896;2023-04-05T11:36:30;102540.09;;;10.56;45.56
46942;BME280;32676;52.630;4.896;2023-04-05T11:41:43;102545.34;;;10.57;46.52
46942;BME280;32676;52.630;4.896;2023-04-05T11:44:12;102549.69;;;10.59;46.66
46942;BME280;32676;52.630;4.896;2023-04-05T11:46:39;102558.44;;;10.62;46.92
46942;BME280;32676;52.630;4.896;2023-04-05T11:49:06;102566.31;;;10.65;46.83
46942;BME280;32676;52.630;4.896;2023-04-05T11:51:33;102613.63;;;10.73;46.65
46942;BME280;32676;52.630;4.896;2023-04-05T11:53:59;102597.88;;;10.71;45.99
46942;BME280;32676;52.630;4.896;2023-04-05T11:56:26;102597.88;;;10.71;45.67
46942;BME280;32676;52.630;4.896;2023-04-05T11:58:56;102627.63;;;10.80;46.55
46942;BME280;32676;52.630;4.896;2023-04-05T12:01:24;102606.63;;;10.73;46.50
46942;BME280;32676;52.630;4.896;2023-04-05T12:03:52;102589.09;;;10.69;46.55
46942;BME280;32676;52.630;4.896;2023-04-05T12:06:20;102582.09;;;10.68;46.76
46942;BME280;32676;52.630;4.896;2023-04-05T12:08:47;102576.84;;;10.65;47.04
46942;BME280;32676;52.630;4.896;2023-04-05T12:11:14;102558.44;;;10.64;46.74
46942;BME280;32676;52.630;4.896;2023-04-05T12:13:41;102540.09;;;10.59;46.76
46942;BME280;32676;52.630;4.896;2023-04-05T12:16:07;102544.44;;;10.60;47.08
46942;BME280;32676;52.630;4.896;2023-04-05T12:18:36;102532.19;;;10.59;47.00
46942;BME280;32676;52.630;4.896;2023-04-05T12:21:03;102550.56;;;10.62;47.37
46942;BME280;32676;52.630;4.896;2023-04-05T12:23:30;102556.72;;;10.63;47.60
46942;BME280;32676;52.630;4.896;2023-04-05T12:25:56;102606.63;;;10.73;47.91
46942;BME280;32676;52.630;4.896;2023-04-05T12:28:23;102604.84;;;10.75;47.62
46942;BME280;32676;52.630;4.896;2023-04-05T12:30:50;102610.06;;;10.79;47.47
46942;BME280;32676;52.630;4.896;2023-04-05T12:33:26;102608.34;;;10.78;47.29
46942;BME280;32676;52.630;4.896;2023-04-05T12:35:54;102606.59;;;10.76;46.75
46942;BME280;32676;52.630;4.896;2023-04-05T12:38:23;102597.84;;;10.74;46.60
46942;BME280;32676;52.630;4.896;2023-04-05T12:40:50;102608.34;;;10.78;46.48
46942;BME280;32676;52.630;4.896;2023-04-05T12:43:17;102621.50;;;10.81;46.79
46942;BME280;32676;52.630;4.896;2023-04-05T12:45:44;102660.91;;;10.90;46.95
46942;BME280;32676;52.630;4.896;2023-04-05T12:48:11;102657.38;;;10.91;47.43
46942;BME280;32676;52.630;4.896;2023-04-05T12:50:41;102670.50;;;10.92;46.95
46942;BME280;32676;52.630;4.896;2023-04-05T12:53:14;102680.13;;;10.95;47.08
46942;BME280;32676;52.630;4.896;2023-04-05T12:55:42;102692.41;;;10.99;46.73
46942;BME280;32676;52.630;4.896;2023-04-05T12:58:09;102679.28;;;10.96;46.74
46942;BME280;32676;52.630;4.896;2023-04-05T13:00:37;102673.16;;;10.94;46.21
46942;BME280;32676;52.630;4.896;2023-04-05T13:03:03;102672.28;;;10.93;45.96
46942;BME280;32676;52.630;4.896;2023-04-05T13:05:30;102691.53;;;10.99;46.44
46942;BME280;32676;52.630;4.896;2023-04-05T13:07:56;102702.91;;;11.02;46.46
46942;BME280;32676;52.630;4.896;2023-04-05T13:10:24;102716.97;;;11.04;46.87
46942;BME280;32676;52.630;4.896;2023-04-05T13:12:50;102752.84;;;11.14;47.27
46942;BME280;32676;52.630;4.896;2023-04-05T13:15:17;102769.50;;;11.18;47.67